createdAt,value
2023-01-12T00:01:25.191Z,100963.56
2023-01-12T00:03:52.151Z,100965.63
2023-01-12T00:06:21.769Z,100963.91
2023-01-12T00:08:48.257Z,100963.06
2023-01-12T00:11:14.795Z,100968.50
2023-01-12T00:13:41.249Z,100962.22
2023-01-12T00:16:28.322Z,100951.34
2023-01-12T00:18:54.768Z,100954.25
2023-01-12T00:21:21.254Z,100968.84
2023-01-12T00:23:47.640Z,100947.28
2023-01-12T00:26:14.060Z,100949.16
2023-01-12T00:28:40.470Z,100962.72
2023-01-12T00:31:10.771Z,100958.16
2023-01-12T00:33:38.194Z,100968.34
2023-01-12T00:36:05.658Z,100977.34
2023-01-12T00:38:34.077Z,100967.50
2023-01-12T00:41:04.501Z,100963.06
2023-01-12T00:43:49.552Z,100964.94
2023-01-12T00:46:15.997Z,100954.06
2023-01-12T00:48:42.518Z,100954.06
2023-01-12T00:51:08.962Z,100938.81
2023-01-12T00:53:35.328Z,100940.66
2023-01-12T00:56:02.750Z,100939.81
2023-01-12T00:58:29.761Z,100936.09
2023-01-12T01:01:04.043Z,100932.53
2023-01-12T01:03:30.468Z,100937.25
2023-01-12T01:06:07.328Z,100936.41
2023-01-12T01:08:36.055Z,100939.13
2023-01-12T01:11:06.841Z,100947.28
2023-01-12T01:13:33.315Z,100949.84
2023-01-12T01:16:00.806Z,100946.25
2023-01-12T01:18:27.900Z,100944.56
2023-01-12T01:20:54.559Z,100942.69
2023-01-12T01:23:21.631Z,100946.25
2023-01-12T01:25:48.053Z,100948.97
2023-01-12T01:28:14.927Z,100940.81
2023-01-12T01:30:41.323Z,100933.69
2023-01-12T01:33:07.734Z,100924.72
2023-01-12T01:35:35.355Z,100923.88
2023-01-12T01:38:01.832Z,100930.13
2023-01-12T01:40:28.242Z,100934.72
2023-01-12T01:42:54.979Z,100915.72
2023-01-12T01:45:21.423Z,100908.41
2023-01-12T01:47:53.854Z,100916.38
2023-01-12T01:50:23.801Z,100910.28
2023-01-12T01:52:55.739Z,100907.56
2023-01-12T01:55:24.453Z,100898.72
2023-01-12T01:57:52.632Z,100911.31
2023-01-12T02:00:20.427Z,100903.31
2023-01-12T02:02:47.647Z,100900.59
2023-01-12T02:05:16.707Z,100894.31
2023-01-12T02:07:43.205Z,100891.78
2023-01-12T02:10:09.826Z,100882.78
2023-01-12T02:12:54.969Z,100880.06
2023-01-12T02:15:41.827Z,100882.94
2023-01-12T02:18:10.764Z,100887.38
2023-01-12T02:20:55.145Z,100887.38
2023-01-12T02:23:40.455Z,100891.09
2023-01-12T02:26:06.813Z,100899.09
2023-01-12T02:29:02.739Z,100895.53
2023-01-12T02:31:32.041Z,100891.97
2023-01-12T02:33:58.387Z,100890.09
2023-01-12T02:36:30.596Z,100890.09
2023-01-12T02:39:07.783Z,100881.94
2023-01-12T02:42:06.341Z,100868.34
2023-01-12T02:44:32.666Z,100863.06
2023-01-12T02:47:00.575Z,100872.94
2023-01-12T02:49:30.047Z,100863.91
2023-01-12T02:51:58.842Z,100864.78
2023-01-12T02:54:27.479Z,100852.06
2023-01-12T02:56:55.595Z,100861.19
2023-01-12T02:59:26.908Z,100858.50
2023-01-12T03:01:56.106Z,100852.22
2023-01-12T03:04:22.689Z,100854.09
2023-01-12T03:06:58.295Z,100851.38
2023-01-12T03:09:27.533Z,100850.34
2023-01-12T03:11:55.261Z,100864.78
2023-01-12T03:14:22.498Z,100858.50
2023-01-12T03:16:49.498Z,100850.34
2023-01-12T03:19:15.864Z,100849.50
2023-01-12T03:21:45.284Z,100849.34
2023-01-12T03:24:14.339Z,100846.78
2023-01-12T03:26:43.007Z,100846.63
2023-01-12T03:29:15.686Z,100843.91
2023-01-12T03:31:42.400Z,100835.91
2023-01-12T03:34:09.077Z,100847.63
2023-01-12T03:36:42.344Z,100845.59
2023-01-12T03:39:14.924Z,100842.88
2023-01-12T03:42:01.569Z,100849.16
2023-01-12T03:44:40.732Z,100839.97
2023-01-12T03:47:12.984Z,100838.09
2023-01-12T03:49:42.460Z,100832.50
2023-01-12T03:52:10.024Z,100827.22
2023-01-12T03:54:38.395Z,100819.94
2023-01-12T03:57:05.521Z,100813.66
2023-01-12T03:59:31.914Z,100817.22
2023-01-12T04:01:58.361Z,100814.50
2023-01-12T04:04:24.768Z,100810.94
2023-01-12T04:06:51.142Z,100812.16
2023-01-12T04:09:17.592Z,100813.00
2023-01-12T04:12:02.742Z,100806.72
2023-01-12T04:14:29.171Z,100811.31
2023-01-12T04:16:55.548Z,100802.31
2023-01-12T04:19:22.001Z,100796.88
2023-01-12T04:22:07.232Z,100800.44
2023-01-12T04:24:33.617Z,100808.59
2023-01-12T04:26:59.977Z,100803.31
2023-01-12T04:29:26.369Z,100806.03
2023-01-12T04:31:52.851Z,100797.03
2023-01-12T04:34:19.330Z,100803.16
2023-01-12T04:36:45.717Z,100786.00
2023-01-12T04:39:12.197Z,100789.56
2023-01-12T04:41:38.646Z,100779.69
2023-01-12T04:44:05.029Z,100776.97
2023-01-12T04:46:31.596Z,100778.03
2023-01-12T04:48:58.585Z,100771.09
2023-01-12T04:51:26.149Z,100777.19
2023-01-12T04:53:53.216Z,100779.03
2023-01-12T04:56:19.620Z,100779.88
2023-01-12T04:58:46.020Z,100778.19
2023-01-12T05:01:17.144Z,100781.75
2023-01-12T05:03:44.705Z,100777.19
2023-01-12T05:06:11.618Z,100779.88
2023-01-12T05:08:56.812Z,100749.53
2023-01-12T05:11:29.407Z,100781.56
2023-01-12T05:13:56.095Z,100774.47
2023-01-12T05:16:22.594Z,100771.75
2023-01-12T05:18:49.234Z,100770.56
2023-01-12T05:21:17.812Z,100776.00
2023-01-12T05:23:47.922Z,100764.28
2023-01-12T05:26:14.705Z,100764.28
2023-01-12T05:28:41.508Z,100758.84
2023-01-12T05:31:12.189Z,100760.53
2023-01-12T05:33:39.407Z,100755.09
2023-01-12T05:36:06.796Z,100751.53
2023-01-12T05:38:33.279Z,100749.66
2023-01-12T05:41:00.921Z,100745.06
2023-01-12T05:43:46.401Z,100754.06
2023-01-12T05:46:12.966Z,100755.75
2023-01-12T05:48:39.458Z,100742.16
2023-01-12T05:51:08.723Z,100737.56
2023-01-12T05:53:36.723Z,100742.00
2023-01-12T05:56:10.925Z,100734.84
2023-01-12T05:58:37.422Z,100735.69
2023-01-12T06:01:10.855Z,100735.69
2023-01-12T06:03:37.658Z,100741.13
2023-01-12T06:06:04.477Z,100739.28
2023-01-12T06:08:30.944Z,100736.56
2023-01-12T06:11:01.686Z,100732.97
2023-01-12T06:13:46.659Z,100737.41
2023-01-12T06:16:13.075Z,100738.25
2023-01-12T06:18:40.049Z,100730.09
2023-01-12T06:21:09.952Z,100736.38
2023-01-12T06:23:36.581Z,100741.81
2023-01-12T06:26:04.279Z,100729.06
2023-01-12T06:28:30.672Z,100730.94
2023-01-12T06:30:58.195Z,100735.34
2023-01-12T06:33:24.859Z,100731.97
2023-01-12T06:35:51.489Z,100732.81
2023-01-12T06:38:19.135Z,100732.63
2023-01-12T06:40:45.641Z,100735.34
2023-01-12T06:43:12.006Z,100720.94
2023-01-12T06:45:38.455Z,100728.03
2023-01-12T06:48:05.079Z,100720.94
2023-01-12T06:50:32.840Z,100719.06
2023-01-12T06:52:59.914Z,100717.38
2023-01-12T06:55:26.660Z,100710.91
2023-01-12T06:57:53.196Z,100714.47
2023-01-12T07:00:20.111Z,100716.34
2023-01-12T07:02:49.338Z,100719.72
2023-01-12T07:05:15.784Z,100703.59
2023-01-12T07:07:43.490Z,100716.19
2023-01-12T07:10:11.133Z,100715.50
2023-01-12T07:12:37.827Z,100718.22
2023-01-12T07:15:04.350Z,100719.91
2023-01-12T07:17:30.829Z,100713.63
2023-01-12T07:19:57.234Z,100711.75
2023-01-12T07:22:23.784Z,100702.75
2023-01-12T07:24:50.208Z,100710.91
2023-01-12T07:27:16.605Z,100697.31
2023-01-12T07:29:42.977Z,100698.00
2023-01-12T07:32:09.355Z,100700.72
2023-01-12T07:34:35.737Z,100702.59
2023-01-12T07:37:02.152Z,100697.16
2023-01-12T07:39:28.511Z,100707.16
2023-01-12T07:42:13.506Z,100703.44
2023-01-12T07:44:40.437Z,100704.44
2023-01-12T07:47:06.833Z,100690.00
2023-01-12T07:49:33.252Z,100698.16
2023-01-12T07:51:59.848Z,100700.72
2023-01-12T07:54:26.338Z,100690.69
2023-01-12T07:56:52.823Z,100686.09
2023-01-12T07:59:19.282Z,100686.09
2023-01-12T08:01:45.725Z,100676.91
2023-01-12T08:04:12.552Z,100664.38
2023-01-12T08:06:39.032Z,100669.44
2023-01-12T08:09:05.446Z,100676.56
2023-01-12T08:11:31.947Z,100661.09
2023-01-12T08:13:59.606Z,100655.84
2023-01-12T08:16:35.922Z,100670.28
2023-01-12T08:19:10.753Z,100656.50
2023-01-12T08:21:47.507Z,100654.81
2023-01-12T08:24:16.632Z,100651.44
2023-01-12T08:26:44.235Z,100656.69
2023-01-12T08:29:23.372Z,100645.00
2023-01-12T08:31:49.866Z,100634.78
2023-01-12T08:34:16.263Z,100633.28
2023-01-12T08:36:44.386Z,100636.28
2023-01-12T08:39:11.177Z,100627.78
2023-01-12T08:41:37.773Z,100628.09
2023-01-12T08:44:08.080Z,100611.38
2023-01-12T08:46:36.009Z,100611.88
2023-01-12T08:49:03.557Z,100618.81
2023-01-12T08:51:30.114Z,100599.59
2023-01-12T08:53:56.617Z,100594.66
2023-01-12T08:56:23.090Z,100599.94
2023-01-12T08:58:49.487Z,100601.41
2023-01-12T09:01:16.934Z,100585.81
2023-01-12T09:03:47.187Z,100584.59
2023-01-12T09:06:15.316Z,100593.41
2023-01-12T09:08:41.916Z,100591.34
2023-01-12T09:11:09.082Z,100581.31
2023-01-12T09:13:35.515Z,100587.41
2023-01-12T09:16:12.254Z,100583.66
2023-01-12T09:18:40.005Z,100578.03
2023-01-12T09:21:13.464Z,100568.66
2023-01-12T09:23:40.310Z,100574.09
2023-01-12T09:26:07.918Z,100561.34
2023-01-12T09:28:34.691Z,100562.03
2023-01-12T09:31:11.080Z,100571.03
2023-01-12T09:33:38.078Z,100572.72
2023-01-12T09:36:06.125Z,100571.66
2023-01-12T09:38:34.788Z,100570.63
2023-01-12T09:41:02.768Z,100556.88
2023-01-12T09:43:48.001Z,100565.88
2023-01-12T09:46:44.186Z,100555.84
2023-01-12T09:49:12.586Z,100555.63
2023-01-12T09:51:59.025Z,100547.47
2023-01-12T09:54:25.520Z,100547.47
2023-01-12T09:57:20.653Z,100539.16
2023-01-12T10:00:01.738Z,100536.44
2023-01-12T10:02:28.222Z,100533.50
2023-01-12T10:04:56.838Z,100517.19
2023-01-12T10:07:23.337Z,100527.03
2023-01-12T10:09:49.750Z,100524.97
2023-01-12T10:12:31.289Z,100517.88
2023-01-12T10:15:08.094Z,100519.53
2023-01-12T10:17:45.954Z,100504.06
2023-01-12T10:20:28.166Z,100497.78
2023-01-12T10:23:06.973Z,100503.88
2023-01-12T10:25:33.331Z,100503.88
2023-01-12T10:28:00.512Z,100504.75
2023-01-12T10:30:31.844Z,100490.09
2023-01-12T10:33:08.218Z,100486.53
2023-01-12T10:35:34.717Z,100485.28
2023-01-12T10:38:01.065Z,100482.22
2023-01-12T10:40:27.543Z,100467.56
2023-01-12T10:43:20.130Z,100464.69
2023-01-12T10:46:07.370Z,100461.75
2023-01-12T10:48:33.931Z,100453.59
2023-01-12T10:51:02.263Z,100447.09
2023-01-12T10:53:47.515Z,100450.66
2023-01-12T10:56:35.714Z,100454.22
2023-01-12T10:59:15.241Z,100439.78
2023-01-12T11:01:42.796Z,100457.81
2023-01-12T11:04:11.906Z,100422.47
2023-01-12T11:06:40.082Z,100431.47
2023-01-12T11:09:26.901Z,100409.50
2023-01-12T11:11:54.473Z,100423.94
2023-01-12T11:14:25.726Z,100421.22
2023-01-12T11:16:52.317Z,100419.34
2023-01-12T11:19:21.809Z,100420.00
2023-01-12T11:21:54.437Z,100401.13
2023-01-12T11:24:20.877Z,100404.72
2023-01-12T11:26:58.499Z,100395.69
2023-01-12T11:29:33.635Z,100388.41
2023-01-12T11:32:04.254Z,100391.13
2023-01-12T11:34:35.980Z,100385.66
2023-01-12T11:37:06.732Z,100390.91
2023-01-12T11:39:35.167Z,100383.78
2023-01-12T11:42:20.711Z,100387.34
2023-01-12T11:44:50.571Z,100371.03
2023-01-12T11:47:21.641Z,100374.59
2023-01-12T11:49:53.399Z,100368.31
2023-01-12T11:52:19.924Z,100362.88
2023-01-12T11:54:46.432Z,100357.22
2023-01-12T11:57:15.614Z,100359.75
2023-01-12T11:59:48.208Z,100366.03
2023-01-12T12:02:37.154Z,100357.88
2023-01-12T12:05:05.580Z,100346.34
2023-01-12T12:07:55.680Z,100351.78
2023-01-12T12:10:22.461Z,100351.59
2023-01-12T12:13:07.764Z,100357.88
2023-01-12T12:15:34.152Z,100333.56
2023-01-12T12:18:23.900Z,100354.13
2023-01-12T12:21:03.555Z,100354.13
2023-01-12T12:23:36.895Z,100353.28
2023-01-12T12:26:06.761Z,100339.69
2023-01-12T12:28:51.872Z,100351.41
2023-01-12T12:31:40.418Z,100341.34
2023-01-12T12:34:16.108Z,100350.56
2023-01-12T12:36:46.218Z,100357.88
2023-01-12T12:39:18.906Z,100353.28
2023-01-12T12:42:10.736Z,100352.25
2023-01-12T12:45:14.735Z,100324.19
2023-01-12T12:47:53.215Z,100335.06
2023-01-12T12:50:22.743Z,100326.91
2023-01-12T12:53:01.155Z,100327.75
2023-01-12T12:55:27.649Z,100336.56
2023-01-12T12:58:05.069Z,100340.31
2023-01-12T13:00:40.325Z,100322.09
2023-01-12T13:03:07.169Z,100341.16
2023-01-12T13:05:42.930Z,100344.75
2023-01-12T13:08:20.180Z,100331.97
2023-01-12T13:10:51.715Z,100327.38
2023-01-12T13:13:29.456Z,100321.09
2023-01-12T13:16:19.332Z,100321.09
2023-01-12T13:18:48.578Z,100317.31
2023-01-12T13:21:27.498Z,100303.72
2023-01-12T13:23:55.261Z,100317.31
2023-01-12T13:26:34.952Z,100300.16
2023-01-12T13:29:20.339Z,100302.88
2023-01-12T13:31:46.747Z,100299.13
2023-01-12T13:34:31.805Z,100313.75
2023-01-12T13:37:17.227Z,100310.00
2023-01-12T13:39:50.531Z,100316.28
2023-01-12T13:42:37.701Z,100325.28
2023-01-12T13:45:04.648Z,100316.50
2023-01-12T13:47:33.101Z,100315.44
2023-01-12T13:50:01.053Z,100302.69
2023-01-12T13:52:35.875Z,100298.91
2023-01-12T13:55:03.078Z,100304.56
2023-01-12T13:57:30.852Z,100317.97
2023-01-12T13:59:58.041Z,100305.22
2023-01-12T14:02:24.970Z,100310.66
2023-01-12T14:05:00.213Z,100325.94
2023-01-12T14:07:43.548Z,100327.81
2023-01-12T14:10:19.306Z,100319.25
2023-01-12T14:13:21.374Z,100340.84
2023-01-12T14:16:06.506Z,100320.75
2023-01-12T14:18:43.478Z,100319.53
2023-01-12T14:21:23.978Z,100313.88
2023-01-12T14:23:50.693Z,100326.28
2023-01-12T14:26:22.721Z,100337.16
2023-01-12T14:28:50.966Z,100335.06
2023-01-12T14:31:17.465Z,100328.59
2023-01-12T14:33:48.775Z,100329.41
2023-01-12T14:36:17.577Z,100330.28
2023-01-12T14:38:44.441Z,100331.13
2023-01-12T14:41:34.892Z,100336.56
2023-01-12T14:44:19.996Z,100343.91
2023-01-12T14:46:49.261Z,100327.56
2023-01-12T14:49:19.918Z,100318.53
2023-01-12T14:51:54.430Z,100331.13
2023-01-12T14:54:24.565Z,100329.41
2023-01-12T14:56:56.821Z,100330.28
2023-01-12T14:59:25.091Z,100330.47
2023-01-12T15:01:52.797Z,100330.47
2023-01-12T15:04:23.811Z,100335.06
2023-01-12T15:07:07.076Z,100335.06
2023-01-12T15:09:35.621Z,100336.94
2023-01-12T15:12:21.013Z,100335.06
2023-01-12T15:14:47.610Z,100327.94
2023-01-12T15:17:32.752Z,100347.00
2023-01-12T15:20:17.926Z,100330.66
2023-01-12T15:23:03.344Z,100337.16
2023-01-12T15:25:35.962Z,100333.56
2023-01-12T15:28:04.560Z,100340.06
2023-01-12T15:30:32.138Z,100337.34
2023-01-12T15:32:59.117Z,100349.06
2023-01-12T15:35:26.546Z,100343.63
2023-01-12T15:38:01.070Z,100334.63
2023-01-12T15:40:27.992Z,100337.34
2023-01-12T15:42:54.527Z,100341.94
2023-01-12T15:45:40.467Z,100340.25
2023-01-12T15:48:07.373Z,100337.53
2023-01-12T15:50:34.450Z,100342.97
2023-01-12T15:53:01.407Z,100344.03
2023-01-12T15:55:30.529Z,100346.75
2023-01-12T15:57:56.934Z,100349.47
2023-01-12T16:00:23.943Z,100335.88
2023-01-12T16:02:51.369Z,100335.00
2023-01-12T16:05:19.405Z,100344.03
2023-01-12T16:07:48.378Z,100336.88
2023-01-12T16:10:16.340Z,100336.88
2023-01-12T16:12:44.166Z,100345.88
2023-01-12T16:15:31.609Z,100344.41
2023-01-12T16:17:58.081Z,100344.03
2023-01-12T16:20:24.602Z,100349.47
2023-01-12T16:22:51.322Z,100351.31
2023-01-12T16:25:17.863Z,100342.16
2023-01-12T16:27:44.301Z,100340.25
2023-01-12T16:30:14.967Z,100347.59
2023-01-12T16:32:46.271Z,100349.47
2023-01-12T16:35:13.642Z,100350.31
2023-01-12T16:37:40.074Z,100351.16
2023-01-12T16:40:06.998Z,100345.72
2023-01-12T16:42:33.442Z,100355.56
2023-01-12T16:44:59.790Z,100346.53
2023-01-12T16:47:26.141Z,100342.97
2023-01-12T16:49:52.582Z,100348.44
2023-01-12T16:52:20.159Z,100347.38
2023-01-12T16:54:46.656Z,100351.16
2023-01-12T16:57:14.154Z,100359.09
2023-01-12T16:59:40.965Z,100348.44
2023-01-12T17:02:08.449Z,100349.25
2023-01-12T17:04:36.025Z,100354.72
2023-01-12T17:07:03.106Z,100355.56
2023-01-12T17:09:29.697Z,100357.44
2023-01-12T17:11:58.177Z,100361.84
2023-01-12T17:14:25.087Z,100357.22
2023-01-12T17:16:53.109Z,100358.06
2023-01-12T17:19:19.897Z,100358.06
2023-01-12T17:21:47.192Z,100339.88
2023-01-12T17:24:16.573Z,100348.88
2023-01-12T17:26:43.296Z,100346.16
2023-01-12T17:29:10.740Z,100339.00
2023-01-12T17:31:38.034Z,100343.63
2023-01-12T17:34:05.173Z,100344.44
2023-01-12T17:36:32.035Z,100345.31
2023-01-12T17:38:58.666Z,100346.16
2023-01-12T17:41:44.655Z,100344.44
2023-01-12T17:44:11.083Z,100348.03
2023-01-12T17:46:37.597Z,100344.44
2023-01-12T17:49:05.021Z,100347.19
2023-01-12T17:51:31.635Z,100345.31
2023-01-12T17:53:58.963Z,100348.88
2023-01-12T17:56:26.004Z,100353.50
2023-01-12T17:58:53.436Z,100354.31
2023-01-12T18:01:20.583Z,100355.16
2023-01-12T18:03:46.968Z,100349.91
2023-01-12T18:06:18.467Z,100348.03
2023-01-12T18:08:52.496Z,100356.22
2023-01-12T18:11:19.332Z,100353.50
2023-01-12T18:13:46.145Z,100349.72
2023-01-12T18:16:14.168Z,100350.78
2023-01-12T18:18:42.429Z,100349.72
2023-01-12T18:21:10.796Z,100346.16
2023-01-12T18:23:38.806Z,100348.03
2023-01-12T18:26:06.763Z,100346.16
2023-01-12T18:28:33.264Z,100345.31
2023-01-12T18:31:07.077Z,100341.72
2023-01-12T18:33:33.533Z,100341.72
2023-01-12T18:35:59.978Z,100338.16
2023-01-12T18:38:27.643Z,100337.34
2023-01-12T18:41:12.745Z,100342.59
2023-01-12T18:43:41.838Z,100337.34
2023-01-12T18:46:11.799Z,100330.22
2023-01-12T18:48:38.455Z,100332.72
2023-01-12T18:51:23.869Z,100329.16
2023-01-12T18:53:50.307Z,100322.06
2023-01-12T18:56:17.076Z,100325.63
2023-01-12T18:58:45.323Z,100322.88
2023-01-12T19:01:18.307Z,100320.16
2023-01-12T19:03:44.822Z,100316.41
2023-01-12T19:06:39.420Z,100321.00
2023-01-12T19:09:24.409Z,100323.72
2023-01-12T19:11:50.768Z,100314.50
2023-01-12T19:14:35.856Z,100316.41
2023-01-12T19:17:20.684Z,100317.44
2023-01-12T19:19:47.162Z,100317.44
2023-01-12T19:22:32.244Z,100312.84
2023-01-12T19:25:16.939Z,100309.06
2023-01-12T19:28:01.947Z,100308.22
2023-01-12T19:30:28.848Z,100305.50
2023-01-12T19:32:55.590Z,100310.97
2023-01-12T19:35:22.147Z,100310.78
2023-01-12T19:37:49.131Z,100310.78
2023-01-12T19:40:30.719Z,100300.91
2023-01-12T19:43:12.521Z,100299.91
2023-01-12T19:45:43.202Z,100295.47
2023-01-12T19:48:10.389Z,100291.91
2023-01-12T19:50:37.017Z,100289.00
2023-01-12T19:53:04.311Z,100295.28
2023-01-12T19:55:34.695Z,100287.97
2023-01-12T19:58:01.439Z,100287.97
2023-01-12T20:00:27.917Z,100294.25
2023-01-12T20:02:54.391Z,100288.81
2023-01-12T20:05:23.519Z,100285.25
2023-01-12T20:07:51.069Z,100291.53
2023-01-12T20:10:17.599Z,100292.34
2023-01-12T20:12:44.035Z,100288.81
2023-01-12T20:15:10.768Z,100299.47
2023-01-12T20:17:37.538Z,100287.13
2023-01-12T20:20:08.146Z,100282.53
2023-01-12T20:22:35.795Z,100292.56
2023-01-12T20:25:02.868Z,100299.69
2023-01-12T20:27:30.112Z,100289.63
2023-01-12T20:29:56.578Z,100294.03
2023-01-12T20:32:23.024Z,100289.63
2023-01-12T20:34:49.522Z,100289.63
2023-01-12T20:37:16.018Z,100286.91
2023-01-12T20:39:42.540Z,100289.63
2023-01-12T20:42:09.370Z,100285.88
2023-01-12T20:44:35.779Z,100285.03
2023-01-12T20:47:02.273Z,100278.75
2023-01-12T20:49:31.331Z,100284.03
2023-01-12T20:51:59.007Z,100271.25
2023-01-12T20:54:25.374Z,100282.13
2023-01-12T20:56:51.834Z,100272.25
2023-01-12T20:59:18.254Z,100274.97
2023-01-12T21:01:44.932Z,100271.41
2023-01-12T21:04:11.510Z,100280.44
2023-01-12T21:06:37.950Z,100274.97
2023-01-12T21:09:04.736Z,100277.69
2023-01-12T21:11:31.128Z,100270.41
2023-01-12T21:13:57.557Z,100272.25
2023-01-12T21:16:24.086Z,100273.97
2023-01-12T21:18:51.180Z,100275.84
2023-01-12T21:21:18.115Z,100285.88
2023-01-12T21:23:44.559Z,100268.53
2023-01-12T21:26:11.225Z,100267.69
2023-01-12T21:28:38.654Z,100273.75
2023-01-12T21:31:05.788Z,100262.03
2023-01-12T21:33:32.376Z,100264.75
2023-01-12T21:35:59.207Z,100264.75
2023-01-12T21:38:26.172Z,100270.19
2023-01-12T21:40:52.800Z,100253.88
2023-01-12T21:43:19.549Z,100254.50
2023-01-12T21:45:47.551Z,100258.28
2023-01-12T21:48:14.832Z,100260.81
2023-01-12T21:50:41.659Z,100252.66
2023-01-12T21:53:08.951Z,100254.31
2023-01-12T21:55:35.504Z,100251.59
2023-01-12T21:58:05.070Z,100247.00
2023-01-12T22:00:31.558Z,100245.09
2023-01-12T22:02:58.023Z,100250.56
2023-01-12T22:05:25.226Z,100245.09
2023-01-12T22:07:52.267Z,100234.22
2023-01-12T22:10:19.279Z,100233.16
2023-01-12T22:12:46.348Z,100235.91
2023-01-12T22:15:13.235Z,100228.78
2023-01-12T22:17:39.951Z,100238.47
2023-01-12T22:20:06.954Z,100233.03
2023-01-12T22:22:33.406Z,100233.03
2023-01-12T22:24:59.798Z,100221.09
2023-01-12T22:27:26.856Z,100230.31
2023-01-12T22:29:53.443Z,100228.41
2023-01-12T22:32:19.821Z,100229.25
2023-01-12T22:34:46.258Z,100220.03
2023-01-12T22:37:12.705Z,100227.38
2023-01-12T22:39:39.106Z,100219.00
2023-01-12T22:42:05.550Z,100220.88
2023-01-12T22:44:32.335Z,100219.00
2023-01-12T22:46:58.763Z,100211.66
2023-01-12T22:49:25.197Z,100205.38
2023-01-12T22:51:51.550Z,100199.94
2023-01-12T22:54:17.974Z,100208.94
2023-01-12T22:56:46.003Z,100204.38
2023-01-12T22:59:12.623Z,100198.94
2023-01-12T23:01:39.009Z,100199.75
2023-01-12T23:04:05.536Z,100198.06
2023-01-12T23:06:31.897Z,100191.59
2023-01-12T23:08:58.261Z,100192.44
2023-01-12T23:11:26.045Z,100189.72
2023-01-12T23:13:54.259Z,100188.88
2023-01-12T23:16:20.744Z,100178.81
2023-01-12T23:18:47.637Z,100179.66
2023-01-12T23:21:19.082Z,100181.53
2023-01-12T23:23:46.951Z,100176.94
2023-01-12T23:26:15.615Z,100180.50
2023-01-12T23:28:46.232Z,100168.78
2023-01-12T23:31:13.813Z,100169.59
2023-01-12T23:33:42.972Z,100165.00
2023-01-12T23:36:10.914Z,100165.00
2023-01-12T23:38:37.394Z,100170.44
2023-01-12T23:41:11.015Z,100145.94
2023-01-12T23:43:37.588Z,100154.94
2023-01-12T23:46:04.338Z,100155.78
2023-01-12T23:48:30.755Z,100160.38
2023-01-12T23:50:58.178Z,100151.59
2023-01-12T23:53:25.668Z,100152.81
2023-01-12T23:55:52.496Z,100151.38
2023-01-12T23:58:19.084Z,100145.22
